Time;durP1;ratioP1;P1;durP2;ratioP2;P2;SDS_P1;SDS_P2;PMS_P1;PMS_P2;Temp;Humidity;BMP_temperature;BMP_pressure;BME280_temperature;BME280_humidity;BME280_pressure;Samples;Min_cycle;Max_cycle;Signal;HPM_P1;HPM_P2
2023/09/01 00:02:21;;;;;;;12.60;7.23;;;15.10;99.90;;;;;;5063447;28;20202;-72
2023/09/01 00:04:47;;;;;;;11.23;6.90;;;15.10;99.90;;;;;;5060514;28;20252;-71
2023/09/01 00:07:12;;;;;;;9.87;6.67;;;15.10;99.90;;;;;;5069867;28;20217;-72
2023/09/01 00:09:38;;;;;;;11.10;6.53;;;15.00;99.90;;;;;;5062128;28;20177;-72
2023/09/01 00:12:04;;;;;;;10.30;6.10;;;14.90;99.90;;;;;;5068211;28;20182;-72
2023/09/01 00:14:30;;;;;;;10.27;6.20;;;14.90;99.90;;;;;;5071544;28;20190;-71
2023/09/01 00:16:55;;;;;;;9.37;6.90;;;14.80;99.90;;;;;;5059381;28;20229;-72
2023/09/01 00:19:23;;;;;;;8.73;6.43;;;14.70;99.90;;;;;;5063555;28;20186;-72
2023/09/01 00:21:53;;;;;;;12.10;6.70;;;14.70;99.90;;;;;;5056363;28;20613;-72
2023/09/01 00:24:18;;;;;;;13.20;7.17;;;14.70;99.90;;;;;;5059463;28;20218;-72
2023/09/01 00:26:44;;;;;;;12.60;6.43;;;14.60;99.90;;;;;;5067374;28;20178;-72
2023/09/01 00:29:09;;;;;;;9.77;6.00;;;14.60;99.90;;;;;;5054243;28;20174;-74
2023/09/01 00:31:35;;;;;;;11.93;6.50;;;14.60;99.90;;;;;;5064737;28;20187;-72
2023/09/01 00:34:01;;;;;;;8.40;7.57;;;14.60;99.90;;;;;;5051064;28;20170;-72
2023/09/01 00:36:26;;;;;;;10.03;6.67;;;14.60;99.90;;;;;;5063467;28;20178;-72
2023/09/01 00:38:52;;;;;;;15.90;5.67;;;14.60;99.90;;;;;;5051141;28;20182;-72
2023/09/01 00:41:17;;;;;;;9.87;6.80;;;14.60;99.90;;;;;;5058702;28;20205;-73
2023/09/01 00:43:43;;;;;;;8.13;6.20;;;14.70;99.90;;;;;;5058234;28;20179;-73
2023/09/01 00:46:09;;;;;;;8.83;6.63;;;14.70;99.90;;;;;;5053374;28;20745;-72
2023/09/01 00:48:34;;;;;;;9.17;6.90;;;14.60;99.90;;;;;;5071599;28;20197;-73
2023/09/01 00:51:00;;;;;;;8.57;6.60;;;14.70;99.90;;;;;;5071825;28;20210;-73
2023/09/01 00:53:26;;;;;;;9.77;6.07;;;14.80;99.90;;;;;;5063982;28;20170;-73
2023/09/01 00:55:55;;;;;;;7.10;6.00;;;14.90;99.90;;;;;;5074745;28;20206;-73
2023/09/01 00:58:20;;;;;;;12.03;7.00;;;15.00;99.90;;;;;;5074210;28;20174;-73
2023/09/01 01:00:46;;;;;;;8.33;6.70;;;15.10;99.90;;;;;;5073600;28;20648;-73
2023/09/01 01:03:12;;;;;;;8.57;6.07;;;15.20;99.90;;;;;;5057807;28;20183;-72
2023/09/01 01:05:56;;;;;;;6.30;5.70;;;15.20;99.90;;;;;;5066034;28;20206;-72
2023/09/01 01:08:47;;;;;;;8.10;5.73;;;15.30;99.90;;;;;;5058400;28;20220;-72
2023/09/01 01:11:33;;;;;;;10.77;5.80;;;15.40;99.90;;;;;;5065792;28;20656;-73
2023/09/01 01:14:05;;;;;;;7.10;5.80;;;15.40;99.90;;;;;;5072628;28;20536;-72
2023/09/01 01:16:31;;;;;;;6.20;5.60;;;15.40;99.90;;;;;;5073171;28;20178;-72
2023/09/01 01:19:09;;;;;;;13.20;5.90;;;15.50;99.90;;;;;;5071009;28;20269;-72
2023/09/01 01:21:38;;;;;;;9.30;5.10;;;15.50;99.90;;;;;;5055333;28;20505;-72
2023/09/01 01:24:05;;;;;;;6.03;4.73;;;15.50;99.90;;;;;;5071849;28;20191;-72
2023/09/01 01:26:30;;;;;;;8.97;4.97;;;15.60;99.90;;;;;;5064685;28;20175;-72
2023/09/01 01:28:56;;;;;;;12.57;5.90;;;15.60;99.90;;;;;;5070985;28;20170;-72
2023/09/01 01:31:21;;;;;;;8.77;4.67;;;15.60;99.90;;;;;;5069827;28;20171;-72
2023/09/01 01:34:00;;;;;;;6.57;5.27;;;15.60;99.90;;;;;;5054272;28;20185;-72
2023/09/01 01:36:53;;;;;;;5.50;4.93;;;15.60;99.90;;;;;;5054961;28;20671;-72
2023/09/01 01:39:27;;;;;;;5.80;5.23;;;15.50;99.90;;;;;;5055371;28;20185;-72
2023/09/01 01:41:59;;;;;;;6.57;5.00;;;15.50;99.90;;;;;;5065890;28;20214;-72
2023/09/01 01:44:26;;;;;;;6.70;4.97;;;15.50;99.90;;;;;;5065140;28;20291;-72
2023/09/01 01:46:52;;;;;;;7.67;5.30;;;15.60;99.90;;;;;;5063834;28;20281;-72
2023/09/01 01:49:19;;;;;;;6.73;5.00;;;15.60;99.90;;;;;;5066186;28;20269;-72
2023/09/01 01:51:45;;;;;;;5.60;5.07;;;15.70;99.90;;;;;;5061110;28;20217;-72
2023/09/01 01:54:11;;;;;;;6.70;5.33;;;15.70;99.90;;;;;;5072695;28;20221;-72
2023/09/01 01:56:37;;;;;;;5.87;5.20;;;15.70;99.90;;;;;;5065175;28;20653;-72
2023/09/01 01:59:04;;;;;;;7.00;5.33;;;15.70;99.90;;;;;;5053697;28;20189;-72
2023/09/01 02:01:31;;;;;;;6.60;5.30;;;15.70;99.90;;;;;;5059083;28;20288;-71
2023/09/01 02:03:57;;;;;;;5.40;4.90;;;15.70;99.90;;;;;;5071936;28;20536;-71
2023/09/01 02:06:22;;;;;;;7.83;5.57;;;15.60;99.90;;;;;;5060985;28;20178;-71
2023/09/01 02:08:48;;;;;;;5.93;5.33;;;15.50;99.90;;;;;;5072725;28;20219;-71
2023/09/01 02:11:14;;;;;;;6.60;5.57;;;15.50;99.90;;;;;;5070621;28;20529;-71
2023/09/01 02:13:39;;;;;;;8.90;5.53;;;15.50;99.90;;;;;;5072561;28;20185;-72
2023/09/01 02:16:05;;;;;;;7.27;5.67;;;15.50;99.90;;;;;;5059346;28;20201;-71
2023/09/01 02:18:32;;;;;;;8.47;6.27;;;15.60;99.90;;;;;;5064968;28;20228;-71
2023/09/01 02:20:57;;;;;;;7.07;5.83;;;15.60;99.90;;;;;;5053400;28;20226;-71
2023/09/01 02:23:24;;;;;;;6.33;5.50;;;15.50;99.90;;;;;;5070191;28;20589;-71
2023/09/01 02:25:49;;;;;;;6.60;6.00;;;15.50;99.90;;;;;;5070457;28;20679;-71
2023/09/01 02:28:15;;;;;;;7.50;6.80;;;15.50;99.90;;;;;;5052478;28;20186;-71
2023/09/01 02:30:41;;;;;;;10.30;6.23;;;15.50;99.90;;;;;;5052918;28;20179;-72
2023/09/01 02:33:07;;;;;;;7.43;6.40;;;15.40;99.90;;;;;;5068872;28;20170;-71
2023/09/01 02:35:34;;;;;;;7.87;6.43;;;15.50;99.90;;;;;;5061044;28;20198;-71
2023/09/01 02:37:59;;;;;;;9.10;6.73;;;15.50;99.90;;;;;;5070237;28;20181;-71
2023/09/01 02:40:26;;;;;;;7.87;7.17;;;15.40;99.90;;;;;;5072393;28;20579;-71
2023/09/01 02:42:52;;;;;;;10.17;7.20;;;15.40;99.90;;;;;;5020274;28;1100838;-72
2023/09/01 02:45:18;;;;;;;9.57;7.30;;;15.40;99.90;;;;;;5073222;28;20695;-71
2023/09/01 02:47:44;;;;;;;8.53;7.27;;;15.40;99.90;;;;;;5055447;28;20182;-71
2023/09/01 02:50:10;;;;;;;8.70;7.23;;;15.40;99.90;;;;;;5060882;28;20243;-72
2023/09/01 02:52:36;;;;;;;9.47;8.13;;;15.40;99.90;;;;;;5058122;28;20175;-72
2023/09/01 02:55:03;;;;;;;8.57;7.70;;;15.40;99.90;;;;;;5052701;28;20187;-72
2023/09/01 02:57:28;;;;;;;8.37;7.50;;;15.40;99.90;;;;;;5068279;28;20292;-71
2023/09/01 02:59:54;;;;;;;11.20;7.87;;;15.30;99.90;;;;;;5071322;28;20253;-72
2023/09/01 03:02:20;;;;;;;10.00;7.43;;;15.40;99.90;;;;;;5067818;28;20215;-72
2023/09/01 03:04:49;;;;;;;9.30;7.87;;;15.30;99.90;;;;;;5056325;28;20613;-71
2023/09/01 03:07:15;;;;;;;8.83;7.97;;;15.40;99.90;;;;;;5065706;28;20633;-71
2023/09/01 03:09:40;;;;;;;10.00;8.07;;;15.30;99.90;;;;;;5063860;28;20174;-72
2023/09/01 03:12:06;;;;;;;11.07;8.23;;;15.40;99.90;;;;;;5067425;28;20182;-71
2023/09/01 03:14:31;;;;;;;10.47;7.63;;;15.30;99.90;;;;;;5071429;28;20205;-71
2023/09/01 03:16:57;;;;;;;8.30;7.50;;;15.30;99.90;;;;;;5061021;28;20195;-71
2023/09/01 03:19:23;;;;;;;13.37;7.70;;;15.30;99.90;;;;;;5052529;28;20236;-71
2023/09/01 03:21:48;;;;;;;8.60;7.70;;;15.30;99.90;;;;;;5060436;28;20206;-72
2023/09/01 03:24:14;;;;;;;9.53;7.33;;;15.30;99.90;;;;;;5071350;28;20276;-71
2023/09/01 03:26:39;;;;;;;11.13;8.53;;;15.30;99.90;;;;;;5060395;28;20174;-71
2023/09/01 03:29:05;;;;;;;8.87;7.40;;;15.30;99.90;;;;;;5072121;28;20181;-71
2023/09/01 03:31:33;;;;;;;8.13;7.30;;;15.30;99.90;;;;;;5071360;28;20243;-72
2023/09/01 03:33:59;;;;;;;7.77;6.97;;;15.30;99.90;;;;;;5061319;28;20600;-72
2023/09/01 03:36:25;;;;;;;10.47;7.17;;;15.30;99.90;;;;;;5059746;28;20201;-71
2023/09/01 03:38:54;;;;;;;9.83;7.10;;;15.30;99.90;;;;;;5062877;28;20189;-71
2023/09/01 03:41:20;;;;;;;7.80;6.90;;;15.30;99.90;;;;;;5056991;28;20225;-72
2023/09/01 03:43:45;;;;;;;8.47;6.70;;;15.30;99.90;;;;;;5060178;28;20178;-71
2023/09/01 03:46:11;;;;;;;7.57;6.77;;;15.30;99.90;;;;;;5071124;28;20182;-72
2023/09/01 03:48:36;;;;;;;8.53;7.10;;;15.30;99.90;;;;;;5070471;28;20178;-72
2023/09/01 03:51:15;;;;;;;8.33;6.67;;;15.30;99.90;;;;;;5067075;28;20647;-72
2023/09/01 03:53:42;;;;;;;7.80;6.63;;;15.30;99.90;;;;;;5060625;28;20182;-71
2023/09/01 03:56:09;;;;;;;9.20;6.40;;;15.30;99.90;;;;;;5066760;28;20197;-72
2023/09/01 03:58:36;;;;;;;8.20;6.57;;;15.30;99.90;;;;;;5052857;28;20175;-72
2023/09/01 04:01:05;;;;;;;7.60;6.83;;;15.30;99.90;;;;;;5062327;28;20276;-72
2023/09/01 04:03:31;;;;;;;7.60;6.87;;;15.30;99.90;;;;;;5062184;28;20185;-71
2023/09/01 04:05:57;;;;;;;7.40;6.70;;;15.40;99.90;;;;;;5053401;28;20195;-72
2023/09/01 04:08:23;;;;;;;7.53;6.83;;;15.40;99.90;;;;;;5070813;28;20260;-71
2023/09/01 04:10:48;;;;;;;15.00;8.60;;;15.50;99.90;;;;;;5066358;28;20548;-72
2023/09/01 04:13:14;;;;;;;8.70;7.17;;;15.50;99.90;;;;;;5058469;28;20162;-72
2023/09/01 04:15:40;;;;;;;10.67;7.57;;;15.50;99.90;;;;;;5069936;28;20194;-73
2023/09/01 04:18:05;;;;;;;8.73;7.43;;;15.50;99.90;;;;;;5060072;28;20174;-72
2023/09/01 04:20:31;;;;;;;8.33;7.40;;;15.50;99.90;;;;;;5071570;28;20174;-72
2023/09/01 04:22:56;;;;;;;11.50;7.87;;;15.50;99.90;;;;;;5066108;28;20227;-72
2023/09/01 04:25:22;;;;;;;7.80;7.13;;;15.50;99.90;;;;;;5062120;28;20593;-72
2023/09/01 04:27:48;;;;;;;8.23;7.17;;;15.60;99.90;;;;;;5063578;28;20253;-71
2023/09/01 04:30:13;;;;;;;7.70;6.97;;;15.60;99.90;;;;;;5066549;28;20186;-71
2023/09/01 04:32:44;;;;;;;13.13;7.30;;;15.60;99.90;;;;;;5054658;28;20273;-71
2023/09/01 04:35:10;;;;;;;8.50;7.13;;;15.60;99.90;;;;;;5058497;28;20198;-72
2023/09/01 04:37:36;;;;;;;10.70;7.70;;;15.60;99.90;;;;;;5067425;28;20178;-71
2023/09/01 04:40:06;;;;;;;8.67;7.67;;;15.60;99.90;;;;;;5053165;28;20186;-70
2023/09/01 04:42:32;;;;;;;9.60;7.63;;;15.50;99.90;;;;;;5064232;28;20198;-73
2023/09/01 04:44:57;;;;;;;8.27;7.47;;;15.50;99.90;;;;;;5050853;28;20197;-71
2023/09/01 04:47:23;;;;;;;8.07;6.90;;;15.50;99.90;;;;;;5065765;28;20608;-72
2023/09/01 04:49:49;;;;;;;10.70;8.20;;;15.50;99.90;;;;;;5066904;28;20174;-72
2023/09/01 04:52:15;;;;;;;9.90;7.83;;;15.50;99.90;;;;;;5056066;28;20183;-72
2023/09/01 04:54:41;;;;;;;9.70;7.80;;;15.50;99.90;;;;;;5051075;28;20289;-72
2023/09/01 04:57:06;;;;;;;8.57;7.30;;;15.50;99.90;;;;;;5064097;28;20178;-72
2023/09/01 04:59:32;;;;;;;8.33;7.40;;;15.50;99.90;;;;;;5070965;28;20206;-71
2023/09/01 05:02:00;;;;;;;8.13;7.37;;;15.50;99.90;;;;;;5058761;28;20237;-71
2023/09/01 05:04:26;;;;;;;7.93;7.20;;;15.50;99.90;;;;;;5062135;28;20264;-72
2023/09/01 05:06:52;;;;;;;10.30;7.37;;;15.60;99.90;;;;;;5063904;28;20190;-72
2023/09/01 05:09:19;;;;;;;12.10;8.37;;;15.50;99.90;;;;;;5065156;28;20235;-72
2023/09/01 05:11:44;;;;;;;8.67;7.50;;;15.60;99.90;;;;;;5061191;28;20182;-72
2023/09/01 05:14:10;;;;;;;9.10;7.40;;;15.60;99.90;;;;;;5051694;28;20211;-72
2023/09/01 05:16:35;;;;;;;10.63;7.73;;;15.60;99.90;;;;;;5057695;28;20766;-71
2023/09/01 05:19:01;;;;;;;9.10;7.73;;;15.70;99.90;;;;;;5066448;28;20547;-72
2023/09/01 05:21:27;;;;;;;8.00;6.90;;;15.70;99.90;;;;;;5053208;28;20289;-72
2023/09/01 05:23:52;;;;;;;11.60;7.80;;;15.70;99.90;;;;;;5063890;28;20661;-72
2023/09/01 05:26:18;;;;;;;10.03;7.53;;;15.70;99.90;;;;;;5064401;28;20611;-72
2023/09/01 05:28:43;;;;;;;9.27;7.30;;;15.80;99.90;;;;;;5069640;28;20174;-72
2023/09/01 05:31:09;;;;;;;7.90;7.10;;;15.90;99.90;;;;;;5065738;28;20175;-72
2023/09/01 05:33:35;;;;;;;8.67;7.77;;;15.80;99.90;;;;;;5050443;28;20179;-72
2023/09/01 05:36:00;;;;;;;9.90;7.80;;;15.80;99.90;;;;;;5053831;28;20198;-71
2023/09/01 05:38:26;;;;;;;7.80;7.10;;;15.80;99.90;;;;;;5060869;28;20184;-71
2023/09/01 05:40:56;;;;;;;10.73;7.40;;;15.90;99.90;;;;;;5068261;28;20193;-72
2023/09/01 05:43:22;;;;;;;10.93;7.43;;;16.00;99.90;;;;;;5067290;28;20170;-72
2023/09/01 05:45:48;;;;;;;10.40;7.37;;;16.00;99.90;;;;;;5064597;28;20808;-71
2023/09/01 05:48:13;;;;;;;10.03;7.03;;;16.00;99.90;;;;;;5062674;28;20652;-72
2023/09/01 05:50:41;;;;;;;9.67;6.83;;;16.10;99.90;;;;;;5070523;28;20551;-72
2023/09/01 05:53:07;;;;;;;7.17;6.43;;;16.10;99.90;;;;;;5053568;28;20265;-73
2023/09/01 05:55:32;;;;;;;8.93;6.73;;;16.10;99.90;;;;;;5053902;28;20246;-71
2023/09/01 05:57:58;;;;;;;6.77;6.17;;;16.10;99.90;;;;;;5060209;28;20257;-72
2023/09/01 06:00:24;;;;;;;6.97;6.23;;;16.10;99.90;;;;;;5061989;28;20225;-71
2023/09/01 06:02:51;;;;;;;11.27;6.20;;;16.10;99.90;;;;;;5066482;28;20676;-72
2023/09/01 06:05:17;;;;;;;7.33;6.63;;;16.20;99.90;;;;;;5054646;28;20634;-71
2023/09/01 06:07:42;;;;;;;7.10;6.50;;;16.20;99.90;;;;;;5053830;28;20258;-71
2023/09/01 06:10:08;;;;;;;6.40;5.80;;;16.20;99.90;;;;;;5053745;28;20167;-72
2023/09/01 06:12:34;;;;;;;6.27;5.67;;;16.30;99.90;;;;;;5061953;28;20175;-72
2023/09/01 06:14:59;;;;;;;6.50;5.90;;;16.40;99.90;;;;;;5059782;28;20205;-72
2023/09/01 06:17:25;;;;;;;6.40;5.80;;;16.40;99.90;;;;;;5066044;28;20178;-71
2023/09/01 06:19:51;;;;;;;6.03;5.20;;;16.50;99.90;;;;;;5073627;28;20185;-71
2023/09/01 06:22:16;;;;;;;6.20;5.70;;;16.60;99.90;;;;;;5068041;28;20247;-71
2023/09/01 06:24:42;;;;;;;5.77;5.27;;;16.70;99.90;;;;;;5073305;28;20725;-72
2023/09/01 06:27:07;;;;;;;7.47;5.27;;;16.70;99.90;;;;;;5059231;28;20200;-71
2023/09/01 06:29:33;;;;;;;7.30;5.40;;;16.80;99.90;;;;;;5071732;28;20174;-71
2023/09/01 06:31:59;;;;;;;5.93;5.33;;;16.90;99.90;;;;;;5064148;28;20181;-71
2023/09/01 06:34:25;;;;;;;5.40;4.93;;;16.90;99.90;;;;;;5060166;28;20222;-71
2023/09/01 06:36:50;;;;;;;5.60;5.10;;;16.90;99.90;;;;;;5061714;28;20174;-71
2023/09/01 06:39:18;;;;;;;5.60;5.03;;;17.00;99.90;;;;;;5058931;28;20187;-70
2023/09/01 06:41:45;;;;;;;5.63;5.10;;;17.00;99.90;;;;;;5061196;28;20194;-70
2023/09/01 06:44:11;;;;;;;6.40;5.07;;;17.00;99.90;;;;;;5072829;28;20182;-72
2023/09/01 06:46:37;;;;;;;5.30;4.80;;;17.00;99.90;;;;;;5066352;28;20181;-71
2023/09/01 06:49:03;;;;;;;9.03;5.13;;;17.00;99.90;;;;;;5056881;28;20201;-72
2023/09/01 06:51:29;;;;;;;5.03;4.47;;;17.00;99.90;;;;;;5060521;28;20175;-73
2023/09/01 06:53:55;;;;;;;6.37;4.70;;;17.10;99.90;;;;;;5070541;28;20228;-72
2023/09/01 06:56:21;;;;;;;6.87;5.60;;;17.10;99.90;;;;;;5066773;28;20183;-72
2023/09/01 06:58:46;;;;;;;6.80;5.17;;;17.10;99.90;;;;;;5052729;28;20179;-73
2023/09/01 07:01:15;;;;;;;5.00;4.60;;;17.20;99.90;;;;;;5063022;28;20205;-73
2023/09/01 07:03:40;;;;;;;5.20;4.80;;;17.10;99.90;;;;;;5070690;28;20289;-73
2023/09/01 07:06:07;;;;;;;5.50;5.00;;;17.20;99.90;;;;;;5060508;28;20759;-73
2023/09/01 07:08:32;;;;;;;5.47;5.00;;;17.20;99.90;;;;;;5060770;28;20255;-73
2023/09/01 07:11:09;;;;;;;5.57;4.90;;;17.30;99.90;;;;;;5072259;28;20257;-73
2023/09/01 07:13:37;;;;;;;4.77;4.30;;;17.40;99.90;;;;;;5070238;28;20170;-72
2023/09/01 07:16:03;;;;;;;8.27;5.13;;;17.40;99.90;;;;;;5055926;28;20190;-72
2023/09/01 07:18:29;;;;;;;7.43;5.07;;;17.40;99.90;;;;;;5053239;28;20228;-72
2023/09/01 07:20:59;;;;;;;7.57;5.20;;;17.50;99.90;;;;;;5063834;28;20644;-72
2023/09/01 07:23:26;;;;;;;5.87;4.80;;;17.50;99.90;;;;;;5063469;28;20174;-72
2023/09/01 07:25:53;;;;;;;5.27;4.83;;;17.60;99.90;;;;;;5067452;28;20198;-72
2023/09/01 07:28:18;;;;;;;5.03;4.63;;;17.70;99.90;;;;;;5065688;28;20787;-71
2023/09/01 07:30:44;;;;;;;5.53;5.03;;;17.70;99.90;;;;;;5052140;28;20254;-72
2023/09/01 07:33:10;;;;;;;4.60;4.20;;;17.60;99.90;;;;;;5060703;28;20174;-72
2023/09/01 07:35:35;;;;;;;5.30;4.80;;;17.70;99.90;;;;;;5070822;28;20206;-71
2023/09/01 07:38:03;;;;;;;6.80;5.10;;;17.60;99.90;;;;;;5057442;28;20182;-72
2023/09/01 07:40:32;;;;;;;5.53;5.03;;;17.70;99.90;;;;;;5061424;28;20566;-71
2023/09/01 07:43:01;;;;;;;6.17;5.50;;;17.70;99.90;;;;;;5066131;28;20217;-71
2023/09/01 07:45:27;;;;;;;7.63;5.30;;;17.70;99.90;;;;;;5071949;28;20201;-72
2023/09/01 07:47:53;;;;;;;6.40;5.33;;;17.60;99.90;;;;;;5070279;28;20558;-72
2023/09/01 07:50:18;;;;;;;5.90;5.30;;;17.50;99.90;;;;;;5056951;28;20216;-73
2023/09/01 07:52:44;;;;;;;5.90;5.30;;;17.40;99.90;;;;;;5058820;28;20529;-71
2023/09/01 07:55:10;;;;;;;5.37;4.93;;;17.30;99.90;;;;;;5071540;28;20209;-72
2023/09/01 07:57:35;;;;;;;6.17;5.07;;;17.20;99.90;;;;;;5062261;28;20174;-71
2023/09/01 08:00:05;;;;;;;5.50;4.97;;;17.20;99.90;;;;;;5056084;28;20253;-71
2023/09/01 08:02:31;;;;;;;6.73;5.27;;;17.10;99.90;;;;;;5057787;28;20198;-71
2023/09/01 08:04:56;;;;;;;5.30;4.80;;;17.00;99.90;;;;;;5069801;28;20210;-74
2023/09/01 08:07:22;;;;;;;5.60;4.97;;;16.90;99.90;;;;;;5069393;28;20690;-72
2023/09/01 08:09:48;;;;;;;5.87;5.37;;;16.90;99.90;;;;;;5069840;28;20201;-73
2023/09/01 08:12:13;;;;;;;8.73;5.17;;;16.90;99.90;;;;;;5068910;28;20170;-73
2023/09/01 08:14:39;;;;;;;7.20;4.70;;;16.80;99.90;;;;;;5063429;28;20225;-73
2023/09/01 08:17:04;;;;;;;4.80;4.40;;;16.70;99.90;;;;;;5066177;28;20178;-73
2023/09/01 08:19:30;;;;;;;8.03;4.90;;;16.60;99.90;;;;;;5056871;28;20266;-72
2023/09/01 08:21:57;;;;;;;5.93;5.03;;;16.60;99.90;;;;;;5064870;28;20259;-72
2023/09/01 08:24:23;;;;;;;5.93;5.10;;;16.50;99.90;;;;;;5065061;28;20190;-72
2023/09/01 08:26:48;;;;;;;8.23;5.23;;;16.40;99.90;;;;;;5070023;28;20162;-73
2023/09/01 08:29:14;;;;;;;5.97;5.37;;;16.40;99.90;;;;;;5050911;28;20167;-73
2023/09/01 08:31:41;;;;;;;5.40;4.90;;;16.40;99.90;;;;;;5057546;28;20170;-73
2023/09/01 08:34:10;;;;;;;8.87;5.27;;;16.50;99.90;;;;;;5058190;28;20241;-73
2023/09/01 08:36:36;;;;;;;5.57;4.80;;;16.50;99.90;;;;;;5071191;28;20166;-73
2023/09/01 08:39:03;;;;;;;6.57;5.30;;;16.50;99.90;;;;;;5052560;28;20196;-73
2023/09/01 08:41:29;;;;;;;6.90;5.27;;;16.50;99.90;;;;;;5070729;28;20236;-72
2023/09/01 08:44:01;;;;;;;7.17;5.67;;;16.60;99.90;;;;;;5053165;28;20187;-72
2023/09/01 08:46:29;;;;;;;7.00;5.00;;;16.60;99.90;;;;;;5051154;28;20246;-72
2023/09/01 08:48:55;;;;;;;8.13;6.10;;;16.70;99.90;;;;;;5063761;28;20174;-73
2023/09/01 08:51:22;;;;;;;9.07;5.70;;;16.80;99.90;;;;;;5054626;28;20178;-72
2023/09/01 08:53:48;;;;;;;6.63;5.37;;;16.80;99.90;;;;;;5050876;28;20178;-72
2023/09/01 08:56:14;;;;;;;6.30;5.43;;;16.90;99.90;;;;;;5050836;28;20166;-73
2023/09/01 08:58:41;;;;;;;9.47;6.23;;;16.90;99.90;;;;;;5070260;28;20573;-72
2023/09/01 09:01:07;;;;;;;6.90;6.23;;;16.90;99.90;;;;;;5070298;28;20181;-71
2023/09/01 09:03:33;;;;;;;9.73;6.13;;;16.90;99.90;;;;;;5053411;28;20179;-72
2023/09/01 09:05:59;;;;;;;9.07;6.93;;;16.80;99.90;;;;;;5062416;28;20198;-72
2023/09/01 09:08:25;;;;;;;7.27;6.60;;;16.80;99.90;;;;;;5066414;28;20174;-72
2023/09/01 09:10:51;;;;;;;8.03;6.93;;;16.80;99.90;;;;;;5072879;28;20569;-72
2023/09/01 09:13:28;;;;;;;7.53;6.73;;;16.80;99.90;;;;;;5059120;28;20190;-72
2023/09/01 09:16:15;;;;;;;7.50;6.80;;;16.80;99.90;;;;;;5054943;28;20195;-72
2023/09/01 09:18:43;;;;;;;8.53;7.10;;;16.90;99.90;;;;;;5071547;28;20178;-72
2023/09/01 09:21:27;;;;;;;8.53;7.07;;;16.90;99.90;;;;;;5069782;28;20177;-72
2023/09/01 09:23:58;;;;;;;7.20;6.50;;;16.90;99.90;;;;;;5066655;28;20183;-73
2023/09/01 09:26:28;;;;;;;8.07;6.77;;;16.90;99.90;;;;;;5054621;28;20169;-72
2023/09/01 09:28:54;;;;;;;7.33;6.73;;;16.80;99.90;;;;;;5055473;28;20181;-73
2023/09/01 09:31:36;;;;;;;8.70;6.77;;;16.90;99.90;;;;;;5054096;28;20183;-73
2023/09/01 09:34:12;;;;;;;7.13;6.43;;;16.90;99.90;;;;;;5054913;28;20646;-72
2023/09/01 09:36:38;;;;;;;7.00;6.37;;;17.00;99.90;;;;;;5055402;28;20170;-73
2023/09/01 09:39:06;;;;;;;6.43;5.83;;;17.10;99.90;;;;;;5073622;28;20197;-73
2023/09/01 09:41:45;;;;;;;7.73;6.00;;;17.10;99.90;;;;;;5065815;28;20595;-73
2023/09/01 09:44:12;;;;;;;6.20;5.70;;;17.20;99.90;;;;;;5065041;28;20194;-73
2023/09/01 09:46:44;;;;;;;8.30;5.97;;;17.30;99.90;;;;;;5072642;28;20194;-73
2023/09/01 09:49:14;;;;;;;7.70;6.27;;;17.30;99.90;;;;;;5057793;28;20210;-73
2023/09/01 09:51:42;;;;;;;6.80;6.20;;;17.40;99.90;;;;;;5060192;28;20307;-73
2023/09/01 09:54:10;;;;;;;6.83;6.20;;;17.50;99.90;;;;;;5071701;28;20581;-73
2023/09/01 09:56:38;;;;;;;6.30;5.80;;;17.60;99.90;;;;;;5067718;28;20218;-73
2023/09/01 09:59:04;;;;;;;7.13;6.43;;;17.80;99.90;;;;;;5073875;28;20623;-73
2023/09/01 10:01:34;;;;;;;7.03;6.43;;;17.90;99.90;;;;;;5073576;28;20228;-73
2023/09/01 10:04:04;;;;;;;7.07;6.47;;;18.00;99.90;;;;;;5073875;28;20170;-74
2023/09/01 10:06:31;;;;;;;8.07;7.27;;;18.10;99.90;;;;;;5073953;28;20170;-74
2023/09/01 10:08:59;;;;;;;7.97;7.17;;;18.00;99.90;;;;;;5073809;28;20174;-74
2023/09/01 10:11:28;;;;;;;8.43;7.63;;;17.90;99.90;;;;;;5073361;28;20174;-74
2023/09/01 10:13:55;;;;;;;8.63;7.87;;;17.90;99.90;;;;;;5059898;28;20182;-74
2023/09/01 10:16:23;;;;;;;10.10;7.50;;;18.00;99.90;;;;;;5059937;28;20271;-74
2023/09/01 10:18:49;;;;;;;7.87;7.20;;;18.00;99.90;;;;;;5058440;28;20183;-73
2023/09/01 10:21:16;;;;;;;8.63;7.70;;;18.00;99.90;;;;;;5072971;28;20192;-73
2023/09/01 10:23:43;;;;;;;7.53;6.83;;;18.10;99.90;;;;;;5072069;28;20228;-74
2023/09/01 10:26:24;;;;;;;7.73;7.03;;;18.00;99.90;;;;;;5073603;28;20245;-74
2023/09/01 10:28:58;;;;;;;7.30;6.70;;;18.00;99.90;;;;;;5069753;28;20595;-74
2023/09/01 10:31:24;;;;;;;8.70;7.90;;;18.10;99.90;;;;;;5063119;28;20182;-74
2023/09/01 10:34:15;;;;;;;10.17;8.27;;;18.20;99.90;;;;;;5070122;28;20269;-74
2023/09/01 10:36:42;;;;;;;8.13;7.43;;;18.50;99.90;;;;;;5073352;28;20602;-75
2023/09/01 10:39:26;;;;;;;9.70;8.83;;;18.50;99.90;;;;;;5073140;28;20170;-74
2023/09/01 10:41:58;;;;;;;10.50;7.83;;;18.60;99.90;;;;;;5062281;28;20207;-74
2023/09/01 10:44:39;;;;;;;8.17;7.37;;;18.70;99.90;;;;;;5053063;28;20187;-74
2023/09/01 10:47:33;;;;;;;7.87;6.87;;;18.90;99.90;;;;;;5054226;28;20186;-74
2023/09/01 10:50:03;;;;;;;8.63;7.67;;;19.10;99.90;;;;;;5062009;28;20332;-74
2023/09/01 10:52:31;;;;;;;7.30;6.60;;;19.20;99.90;;;;;;5072635;28;20174;-74
2023/09/01 10:54:59;;;;;;;8.13;6.97;;;19.30;99.90;;;;;;5072758;28;20252;-74
2023/09/01 10:57:39;;;;;;;9.97;7.33;;;19.40;99.90;;;;;;5068610;28;20178;-74
2023/09/01 11:00:25;;;;;;;7.20;6.60;;;19.60;99.90;;;;;;5072434;28;20181;-74
2023/09/01 11:02:50;;;;;;;6.97;6.37;;;19.60;99.90;;;;;;5071133;28;20223;-74
2023/09/01 11:05:35;;;;;;;7.30;6.60;;;19.70;99.90;;;;;;5072422;28;20198;-74
2023/09/01 11:08:15;;;;;;;7.20;6.50;;;19.60;99.90;;;;;;5060993;28;20174;-74
2023/09/01 11:10:41;;;;;;;7.13;6.43;;;19.50;99.90;;;;;;5061638;28;20229;-74
2023/09/01 11:13:17;;;;;;;6.90;6.30;;;19.40;99.90;;;;;;5052133;28;20206;-74
2023/09/01 11:15:47;;;;;;;7.23;6.53;;;19.40;99.90;;;;;;5071602;28;20201;-74
2023/09/01 11:18:23;;;;;;;9.37;6.70;;;19.30;99.90;;;;;;5071563;28;20186;-73
2023/09/01 11:20:53;;;;;;;7.20;6.50;;;19.20;99.90;;;;;;5072496;28;20174;-73
2023/09/01 11:23:22;;;;;;;9.97;6.63;;;19.10;99.90;;;;;;5058936;28;20206;-74
2023/09/01 11:25:56;;;;;;;10.27;7.30;;;19.00;99.90;;;;;;5072303;28;20194;-74
2023/09/01 11:28:22;;;;;;;7.77;7.03;;;19.00;99.90;;;;;;5060250;28;20664;-74
2023/09/01 11:30:52;;;;;;;8.20;7.40;;;18.90;99.90;;;;;;5066619;28;20223;-74
2023/09/01 11:33:20;;;;;;;17.87;7.70;;;18.80;99.90;;;;;;5069486;28;20343;-75
2023/09/01 11:35:46;;;;;;;16.43;7.47;;;18.80;99.90;;;;;;5072322;28;20190;-75
2023/09/01 11:38:21;;;;;;;8.57;7.70;;;18.70;99.90;;;;;;5071826;28;20181;-74
2023/09/01 11:40:51;;;;;;;12.23;8.23;;;18.70;99.90;;;;;;5063158;28;20175;-75
2023/09/01 11:43:17;;;;;;;8.70;7.90;;;18.70;99.90;;;;;;5051834;28;20202;-75
2023/09/01 11:45:47;;;;;;;8.93;8.00;;;18.60;99.90;;;;;;5052234;28;20183;-75
2023/09/01 11:48:14;;;;;;;9.43;7.70;;;18.50;99.90;;;;;;5050889;28;20225;-75
2023/09/01 11:50:45;;;;;;;8.93;7.93;;;18.50;99.90;;;;;;5052306;28;20655;-75
2023/09/01 11:53:25;;;;;;;9.43;7.57;;;18.50;99.90;;;;;;5052982;28;20253;-75
2023/09/01 11:55:51;;;;;;;8.33;7.60;;;18.50;99.90;;;;;;5053596;28;20672;-75
2023/09/01 11:58:17;;;;;;;9.37;7.67;;;18.60;99.90;;;;;;5062916;28;20572;-75
2023/09/01 12:00:44;;;;;;;8.60;7.73;;;18.80;99.90;;;;;;5050933;28;20199;-75
2023/09/01 12:03:10;;;;;;;9.80;7.97;;;18.90;99.90;;;;;;5051654;28;20202;-75
2023/09/01 12:05:38;;;;;;;8.40;7.60;;;18.90;99.90;;;;;;5051980;28;20187;-76
2023/09/01 12:08:06;;;;;;;9.50;7.47;;;19.00;99.90;;;;;;5050542;28;20170;-75
2023/09/01 12:10:32;;;;;;;9.43;8.43;;;19.10;99.90;;;;;;5052581;28;20178;-75
2023/09/01 12:13:05;;;;;;;9.87;7.87;;;19.10;99.90;;;;;;5061426;28;20185;-75
2023/09/01 12:15:31;;;;;;;8.57;7.70;;;19.30;99.90;;;;;;5061775;28;20193;-75
2023/09/01 12:17:56;;;;;;;9.23;6.90;;;19.40;99.90;;;;;;5071664;28;20203;-75
2023/09/01 12:20:22;;;;;;;8.10;7.40;;;19.40;99.90;;;;;;5071471;28;20264;-75
2023/09/01 12:22:48;;;;;;;7.03;6.43;;;19.50;99.90;;;;;;5069500;28;20247;-75
2023/09/01 12:25:14;;;;;;;8.03;7.20;;;19.50;99.90;;;;;;5070408;28;20202;-74
2023/09/01 12:27:40;;;;;;;7.13;6.53;;;19.50;99.90;;;;;;5070470;28;20177;-74
2023/09/01 12:30:06;;;;;;;7.13;6.53;;;19.70;99.90;;;;;;5068399;28;20182;-74
2023/09/01 12:32:32;;;;;;;6.10;5.50;;;19.90;99.90;;;;;;5059810;28;20648;-74
2023/09/01 12:34:57;;;;;;;8.03;5.33;;;20.10;99.90;;;;;;5070156;28;20272;-75
2023/09/01 12:37:23;;;;;;;6.60;5.10;;;20.30;99.90;;;;;;5070028;28;20251;-75
2023/09/01 12:39:49;;;;;;;5.80;4.22;;;20.60;99.90;;;;;;5071346;28;20648;-74
2023/09/01 12:42:14;;;;;;;4.77;4.37;;;20.90;99.90;;;;;;5069927;28;20213;-75
2023/09/01 12:44:40;;;;;;;4.30;3.90;;;21.00;99.90;;;;;;5073406;28;20269;-75
2023/09/01 12:47:05;;;;;;;5.15;3.90;;;21.00;99.90;;;;;;5071960;28;20257;-74
2023/09/01 12:49:31;;;;;;;4.07;3.70;;;21.00;99.90;;;;;;5063971;28;20580;-75